Time;durP1;ratioP1;P1;durP2;ratioP2;P2;SDS_P1;SDS_P2;PMS_P1;PMS_P2;Temp;Humidity;BMP_temperature;BMP_pressure;BME280_temperature;BME280_humidity;BME280_pressure;Samples;Min_cycle;Max_cycle;Signal;HPM_P1;HPM_P2
2022/01/03 00:01:25;;;;;;;19.83;8.20;;;5.60;79.50;;;;;;5097293;28;20027;-22
2022/01/03 00:03:51;;;;;;;19.95;8.35;;;5.60;79.40;;;;;;5096916;28;20059;-22
2022/01/03 00:06:20;;;;;;;23.23;11.38;;;5.60;79.40;;;;;;5096781;28;20102;-22
2022/01/03 00:08:47;;;;;;;21.40;9.55;;;5.60;79.60;;;;;;5097149;28;20043;-22
2022/01/03 00:11:18;;;;;;;23.30;10.73;;;5.60;79.40;;;;;;5097038;28;20028;-22
2022/01/03 00:13:47;;;;;;;27.80;12.25;;;5.60;79.60;;;;;;5096801;28;20078;-22
2022/01/03 00:16:14;;;;;;;19.23;8.65;;;5.60;79.70;;;;;;5096815;28;20024;-22
2022/01/03 00:18:41;;;;;;;15.48;6.85;;;5.60;79.50;;;;;;5097088;28;20020;-22
2022/01/03 00:21:12;;;;;;;25.90;11.27;;;5.60;79.40;;;;;;5096595;28;20032;-22
2022/01/03 00:23:40;;;;;;;21.27;10.55;;;5.70;79.30;;;;;;5096628;28;20027;-22
2022/01/03 00:26:08;;;;;;;30.15;13.32;;;5.70;79.40;;;;;;5096721;28;20016;-22
2022/01/03 00:28:39;;;;;;;26.70;11.52;;;5.60;79.40;;;;;;5095016;28;20032;-22
2022/01/03 00:31:06;;;;;;;32.70;13.60;;;5.60;79.50;;;;;;5096787;28;20028;-22
2022/01/03 00:33:33;;;;;;;29.73;14.20;;;5.60;79.70;;;;;;5096436;28;20044;-22
2022/01/03 00:36:04;;;;;;;32.17;14.07;;;5.60;79.80;;;;;;5096852;28;20028;-22
2022/01/03 00:38:33;;;;;;;17.95;8.77;;;5.60;79.90;;;;;;5096107;28;20028;-22
2022/01/03 00:41:00;;;;;;;25.40;10.65;;;5.60;79.80;;;;;;5096606;28;20020;-22
2022/01/03 00:43:27;;;;;;;28.85;11.50;;;5.60;80.00;;;;;;5096492;28;20107;-22
2022/01/03 00:45:55;;;;;;;31.77;13.15;;;5.60;80.00;;;;;;5094900;28;20111;-22
2022/01/03 00:48:22;;;;;;;31.02;13.85;;;5.60;80.00;;;;;;5094727;28;20491;-22
2022/01/03 00:50:49;;;;;;;30.63;13.80;;;5.60;79.90;;;;;;5095943;28;20483;-22
2022/01/03 00:53:15;;;;;;;26.38;12.68;;;5.60;79.90;;;;;;5095961;28;20529;-22
2022/01/03 00:56:15;;;;;;;21.85;10.10;;;5.60;80.00;;;;;;5094916;28;20069;-22
2022/01/03 00:59:00;;;;;;;13.48;6.45;;;5.60;79.80;;;;;;5053811;28;20047;-22
2022/01/03 01:01:28;;;;;;;21.48;9.95;;;5.60;79.70;;;;;;5053561;28;20041;-22
2022/01/03 01:03:56;;;;;;;19.02;9.98;;;5.60;79.70;;;;;;5053518;28;20119;-22
2022/01/03 01:06:24;;;;;;;24.08;10.90;;;5.60;79.80;;;;;;5052906;28;20025;-22
2022/01/03 01:08:56;;;;;;;23.95;11.68;;;5.60;79.80;;;;;;5052517;28;20037;-22
2022/01/03 01:11:27;;;;;;;26.25;12.57;;;5.60;79.70;;;;;;5053272;28;20100;-22
2022/01/03 01:13:53;;;;;;;27.83;11.77;;;5.60;80.10;;;;;;5053313;28;20512;-22
2022/01/03 01:16:19;;;;;;;24.48;11.85;;;5.60;80.00;;;;;;5053025;28;20144;-22
2022/01/03 01:18:46;;;;;;;21.88;10.48;;;5.60;80.10;;;;;;5053868;28;20060;-22
2022/01/03 01:21:13;;;;;;;28.27;12.68;;;5.60;80.20;;;;;;5053636;28;20091;-21
2022/01/03 01:23:41;;;;;;;19.90;8.98;;;5.60;80.30;;;;;;5053189;28;20055;-22
2022/01/03 01:28:51;;;;;;;;;;;5.60;79.90;;;;;;5054128;28;20518;-22
2022/01/03 01:31:21;;;;;;;20.33;9.60;;;5.60;80.40;;;;;;5053022;28;19909;-22
2022/01/03 01:33:51;;;;;;;29.05;12.35;;;5.60;80.10;;;;;;5066293;28;20448;-22
2022/01/03 01:36:18;;;;;;;15.63;7.20;;;5.60;80.20;;;;;;5094896;28;20115;-22
2022/01/03 01:38:49;;;;;;;17.52;8.23;;;5.60;80.00;;;;;;5095081;28;20398;-22
2022/01/03 01:41:19;;;;;;;25.05;11.18;;;5.60;79.90;;;;;;5095037;28;20369;-22
2022/01/03 01:43:47;;;;;;;26.38;12.90;;;5.70;79.90;;;;;;5095049;28;20067;-21
2022/01/03 01:46:17;;;;;;;25.40;12.20;;;5.60;80.10;;;;;;5095153;28;20035;-22
2022/01/03 01:48:45;;;;;;;18.92;8.75;;;5.70;80.00;;;;;;5094941;28;20495;-22
2022/01/03 01:51:14;;;;;;;28.08;11.65;;;5.70;79.90;;;;;;5095194;28;20107;-22
2022/01/03 01:53:43;;;;;;;31.88;14.63;;;5.70;80.00;;;;;;5094722;28;20131;-22
2022/01/03 01:56:25;;;;;;;26.35;12.20;;;5.70;80.00;;;;;;5094731;28;20035;-22
2022/01/03 01:59:12;;;;;;;30.35;12.48;;;5.70;80.00;;;;;;5095131;28;20024;-22
2022/01/03 02:01:45;;;;;;;33.50;13.65;;;5.60;79.90;;;;;;5094718;28;20099;-22
2022/01/03 02:04:32;;;;;;;35.72;15.30;;;5.60;80.30;;;;;;5094698;28;20078;-21
2022/01/03 02:07:22;;;;;;;23.17;10.60;;;5.60;80.60;;;;;;5094648;28;20102;-22
2022/01/03 02:10:12;;;;;;;29.73;12.75;;;5.60;80.40;;;;;;5093123;28;20042;-21
2022/01/03 02:12:41;;;;;;;34.63;13.77;;;5.60;80.40;;;;;;5094307;28;20373;-22
2022/01/03 02:15:11;;;;;;;33.95;13.82;;;5.60;80.60;;;;;;5094418;28;20020;-22
2022/01/03 02:17:39;;;;;;;33.90;14.48;;;5.60;80.60;;;;;;5094395;28;20364;-22
2022/01/03 02:20:16;;;;;;;35.10;15.20;;;5.60;80.70;;;;;;5092694;28;20052;-22
2022/01/03 02:22:44;;;;;;;33.97;13.45;;;5.50;80.60;;;;;;5094845;28;20031;-22
2022/01/03 02:25:12;;;;;;;35.92;15.13;;;5.50;80.60;;;;;;5094117;28;20560;-21
2022/01/03 02:27:39;;;;;;;36.25;14.85;;;5.50;80.70;;;;;;5094183;28;20064;-22
2022/01/03 02:30:13;;;;;;;33.90;13.90;;;5.50;80.70;;;;;;5094756;28;20032;-22
2022/01/03 02:32:40;;;;;;;49.20;17.92;;;5.40;80.70;;;;;;5094423;28;20024;-22
2022/01/03 02:35:08;;;;;;;46.80;17.83;;;5.50;80.70;;;;;;5093953;28;20107;-22
2022/01/03 02:37:34;;;;;;;41.60;17.48;;;5.50;80.70;;;;;;5094283;28;20036;-22
2022/01/03 02:40:01;;;;;;;40.88;18.27;;;5.50;80.60;;;;;;5093884;28;20028;-22
2022/01/03 02:42:27;;;;;;;32.63;14.40;;;5.50;80.50;;;;;;5093373;28;20020;-22
2022/01/03 02:45:06;;;;;;;33.85;13.70;;;5.40;80.50;;;;;;5094351;28;20039;-22
2022/01/03 02:47:33;;;;;;;35.25;15.10;;;5.50;80.30;;;;;;5092654;28;20047;-22
2022/01/03 02:49:59;;;;;;;44.03;18.20;;;5.40;80.40;;;;;;5093807;28;20060;-22
2022/01/03 02:52:25;;;;;;;46.00;18.13;;;5.40;80.50;;;;;;5093557;28;20059;-22
2022/01/03 02:54:52;;;;;;;38.22;17.08;;;5.40;80.50;;;;;;5093584;28;20036;-22
2022/01/03 02:57:23;;;;;;;45.05;18.48;;;5.40;80.50;;;;;;5093806;28;20159;-22
2022/01/03 02:59:57;;;;;;;36.08;15.40;;;5.40;80.40;;;;;;5093919;28;20456;-22
2022/01/03 03:02:25;;;;;;;49.42;20.05;;;5.30;80.50;;;;;;5093777;28;20024;-22
2022/01/03 03:04:53;;;;;;;53.03;19.73;;;5.30;80.60;;;;;;5093891;28;20032;-22
2022/01/03 03:07:23;;;;;;;35.53;16.10;;;5.30;80.70;;;;;;5093444;28;20051;-22
2022/01/03 03:09:49;;;;;;;39.55;18.23;;;5.30;80.60;;;;;;5093738;28;20016;-22
2022/01/03 03:12:16;;;;;;;38.35;17.33;;;5.30;80.60;;;;;;5093332;28;20036;-23
2022/01/03 03:14:42;;;;;;;39.25;16.67;;;5.30;80.60;;;;;;5092155;28;20115;-21
2022/01/03 03:17:08;;;;;;;39.78;18.33;;;5.30;80.50;;;;;;5093612;28;20127;-22
2022/01/03 03:19:56;;;;;;;34.85;14.88;;;5.30;80.50;;;;;;5093675;28;20111;-22
2022/01/03 03:22:28;;;;;;;35.13;16.48;;;5.30;80.30;;;;;;5093182;28;20038;-22
2022/01/03 03:25:05;;;;;;;42.33;19.73;;;5.30;80.30;;;;;;5093206;28;20034;-22
2022/01/03 03:27:31;;;;;;;31.85;15.75;;;5.30;80.40;;;;;;5093665;28;20031;-22
2022/01/03 03:29:58;;;;;;;29.52;13.70;;;5.20;80.40;;;;;;5092593;28;20484;-22
2022/01/03 03:32:26;;;;;;;39.75;19.52;;;5.20;80.30;;;;;;5093158;28;20376;-22
2022/01/03 03:34:53;;;;;;;48.13;23.30;;;5.20;80.40;;;;;;5093148;28;20031;-22
2022/01/03 03:37:20;;;;;;;41.25;18.88;;;5.20;80.50;;;;;;5093386;28;20127;-22
2022/01/03 03:39:46;;;;;;;34.22;15.63;;;5.10;80.60;;;;;;5093088;28;20385;-22
2022/01/03 03:42:14;;;;;;;37.15;17.20;;;5.10;80.60;;;;;;5092903;28;20035;-23
2022/01/03 03:44:40;;;;;;;24.25;12.27;;;5.20;80.50;;;;;;5093131;28;20074;-22
2022/01/03 03:47:07;;;;;;;27.48;12.88;;;5.20;80.50;;;;;;5093402;28;20020;-22
2022/01/03 03:49:35;;;;;;;30.55;14.50;;;5.20;80.40;;;;;;5093670;28;20074;-21
2022/01/03 03:52:02;;;;;;;36.22;17.65;;;5.20;80.40;;;;;;5093333;28;20384;-22
2022/01/03 03:54:31;;;;;;;41.72;21.10;;;5.20;80.40;;;;;;5092536;28;20062;-22
2022/01/03 03:56:58;;;;;;;36.47;18.65;;;5.20;80.30;;;;;;5093232;28;20028;-22
2022/01/03 03:59:26;;;;;;;29.27;14.88;;;5.20;80.30;;;;;;5093581;28;20129;-21
2022/01/03 04:01:53;;;;;;;37.70;18.90;;;5.30;80.20;;;;;;5093746;28;20032;-21
2022/01/03 04:04:19;;;;;;;38.97;19.92;;;5.30;80.20;;;;;;5093004;28;20051;-21
2022/01/03 04:06:46;;;;;;;41.90;20.13;;;5.20;80.30;;;;;;5093476;28;20031;-22
2022/01/03 04:09:13;;;;;;;30.95;15.93;;;5.30;80.30;;;;;;5093144;28;20125;-22
2022/01/03 04:11:39;;;;;;;41.72;21.10;;;5.30;80.20;;;;;;5093169;28;20484;-22
2022/01/03 04:14:05;;;;;;;28.45;14.70;;;5.30;80.30;;;;;;5093159;28;20087;-22
2022/01/03 04:16:32;;;;;;;34.17;17.83;;;5.40;80.20;;;;;;5093164;28;20098;-22
2022/01/03 04:18:58;;;;;;;29.88;16.15;;;5.40;80.10;;;;;;5092744;28;20028;-21
2022/01/03 04:21:25;;;;;;;33.25;16.73;;;5.40;80.00;;;;;;5092960;28;20495;-22
2022/01/03 04:23:52;;;;;;;26.10;14.48;;;5.40;80.00;;;;;;5092700;28;20036;-21
2022/01/03 04:26:18;;;;;;;24.85;11.93;;;5.40;79.80;;;;;;5092406;28;20483;-22
2022/01/03 04:28:44;;;;;;;25.42;12.73;;;5.40;79.80;;;;;;5092726;28;20552;-22
2022/01/03 04:31:10;;;;;;;36.15;19.55;;;5.50;79.70;;;;;;5092670;28;20023;-22
2022/01/03 04:33:36;;;;;;;26.77;13.95;;;5.40;79.60;;;;;;5092903;28;20149;-22
2022/01/03 04:36:04;;;;;;;21.38;11.30;;;5.50;79.70;;;;;;5092836;28;20066;-22
2022/01/03 04:38:32;;;;;;;28.27;16.52;;;5.40;79.60;;;;;;5092668;28;20028;-22
2022/01/03 04:40:59;;;;;;;24.15;14.07;;;5.50;79.70;;;;;;5092817;28;20054;-21
2022/01/03 04:43:26;;;;;;;19.98;10.40;;;5.50;79.60;;;;;;5096252;28;20039;-21
2022/01/03 04:45:52;;;;;;;45.35;23.25;;;5.60;79.70;;;;;;5096144;28;20024;-21
2022/01/03 04:48:18;;;;;;;20.67;10.40;;;5.60;79.60;;;;;;5096001;28;20032;-22
2022/01/03 04:50:44;;;;;;;26.77;14.45;;;5.60;79.50;;;;;;5096013;28;20119;-21
2022/01/03 04:53:09;;;;;;;24.27;12.70;;;5.60;79.50;;;;;;5095800;28;20131;-21
2022/01/03 04:55:35;;;;;;;21.60;11.98;;;5.60;79.40;;;;;;5095986;28;20024;-22
2022/01/03 04:58:01;;;;;;;21.63;11.50;;;5.70;79.40;;;;;;5094772;28;20024;-22
2022/01/03 05:00:27;;;;;;;20.55;12.02;;;5.70;79.30;;;;;;5095708;28;20073;-22
2022/01/03 05:02:53;;;;;;;23.80;12.15;;;5.70;79.20;;;;;;5094610;28;20031;-22
2022/01/03 05:05:19;;;;;;;25.80;15.13;;;5.70;79.20;;;;;;5096127;28;20024;-22
2022/01/03 05:07:46;;;;;;;22.80;12.40;;;5.70;79.20;;;;;;5094571;28;20399;-21
2022/01/03 05:10:12;;;;;;;27.63;13.57;;;5.70;79.20;;;;;;5096569;28;20032;-27
2022/01/03 05:12:38;;;;;;;18.20;11.23;;;5.70;79.20;;;;;;5096502;28;20082;-21
2022/01/03 05:15:04;;;;;;;21.35;11.27;;;5.70;79.20;;;;;;5095531;28;20020;-21
2022/01/03 05:17:31;;;;;;;38.53;21.90;;;5.70;79.10;;;;;;5095551;28;20024;-21
2022/01/03 05:19:58;;;;;;;43.42;24.15;;;5.70;79.10;;;;;;5094339;28;20056;-21
2022/01/03 05:22:24;;;;;;;35.25;19.65;;;5.80;79.10;;;;;;5095374;28;20024;-21
2022/01/03 05:24:50;;;;;;;40.05;22.20;;;5.70;79.20;;;;;;5095843;28;20410;-22
2022/01/03 05:27:16;;;;;;;36.03;19.10;;;5.70;79.20;;;;;;5095416;28;20535;-21
2022/01/03 05:29:42;;;;;;;44.45;24.35;;;5.70;79.30;;;;;;5094396;28;20479;-21
2022/01/03 05:32:08;;;;;;;37.17;20.30;;;5.60;79.40;;;;;;5095323;28;20031;-22
2022/01/03 05:34:34;;;;;;;30.92;16.42;;;5.60;79.40;;;;;;5095310;28;20025;-22
2022/01/03 05:37:00;;;;;;;28.92;16.27;;;5.60;79.60;;;;;;5095115;28;20032;-22
2022/01/03 05:39:26;;;;;;;40.30;21.17;;;5.60;79.60;;;;;;5095353;28;20031;-21
2022/01/03 05:41:52;;;;;;;39.42;21.35;;;5.60;79.60;;;;;;5095350;28;20392;-22
2022/01/03 05:44:18;;;;;;;36.03;19.80;;;5.60;79.60;;;;;;5094788;28;20392;-22
2022/01/03 05:46:44;;;;;;;22.17;11.38;;;5.70;79.60;;;;;;5095011;28;20024;-22
2022/01/03 05:49:11;;;;;;;38.33;21.50;;;5.60;79.50;;;;;;5094960;28;20035;-21
2022/01/03 05:51:37;;;;;;;37.55;20.25;;;5.70;79.50;;;;;;5095214;28;20024;-22
2022/01/03 05:54:04;;;;;;;32.53;18.75;;;5.70;79.50;;;;;;5093888;28;20070;-22
2022/01/03 05:56:31;;;;;;;32.72;18.20;;;5.70;79.40;;;;;;5093148;28;20039;-21
2022/01/03 05:58:56;;;;;;;28.50;13.98;;;5.80;79.40;;;;;;5094826;28;20035;-21
2022/01/03 06:01:23;;;;;;;24.30;12.80;;;5.80;79.40;;;;;;5094683;28;20028;-22
2022/01/03 06:03:58;;;;;;;24.55;14.40;;;5.80;79.30;;;;;;5094681;28;20505;-22
2022/01/03 06:06:53;;;;;;;17.27;9.32;;;5.80;79.20;;;;;;5093786;28;20032;-21
2022/01/03 06:09:17;;;;;;;24.75;15.55;;;5.80;79.20;;;;;;5094457;28;20122;-21
2022/01/03 06:11:43;;;;;;;28.23;14.05;;;5.90;79.20;;;;;;5094696;28;20440;-21
2022/01/03 06:14:09;;;;;;;29.90;15.98;;;5.90;79.20;;;;;;5093288;28;20047;-21
2022/01/03 06:16:35;;;;;;;27.63;15.15;;;5.90;79.20;;;;;;5094199;28;20075;-22
2022/01/03 06:19:01;;;;;;;16.08;8.73;;;5.90;79.10;;;;;;5094375;28;20024;-21
2022/01/03 06:21:27;;;;;;;30.42;16.35;;;6.00;79.00;;;;;;5094413;28;20023;-21
2022/01/03 06:23:53;;;;;;;32.28;18.00;;;6.00;79.00;;;;;;5094569;28;20020;-22
2022/01/03 06:26:19;;;;;;;26.85;14.95;;;6.10;78.90;;;;;;5094121;28;20061;-22
2022/01/03 06:28:45;;;;;;;30.13;16.13;;;6.10;78.90;;;;;;5094186;28;20115;-21
2022/01/03 06:31:11;;;;;;;22.67;13.27;;;6.10;78.80;;;;;;5094167;28;20066;-22
2022/01/03 06:33:37;;;;;;;25.17;14.02;;;6.10;78.80;;;;;;5093276;28;20024;-22
2022/01/03 06:36:03;;;;;;;18.90;10.48;;;6.10;78.70;;;;;;5092725;28;20035;-22
2022/01/03 06:38:30;;;;;;;40.55;22.42;;;6.10;78.70;;;;;;5093935;28;20028;-21
2022/01/03 06:40:56;;;;;;;19.83;10.20;;;6.10;78.70;;;;;;5093767;28;20043;-22
2022/01/03 06:43:22;;;;;;;27.63;14.68;;;6.10;78.70;;;;;;5092730;28;20028;-21
2022/01/03 06:45:48;;;;;;;16.92;7.95;;;6.10;78.70;;;;;;5094136;28;20030;-21
2022/01/03 06:48:13;;;;;;;13.38;7.68;;;6.10;78.60;;;;;;5092391;28;20028;-21
2022/01/03 06:50:40;;;;;;;19.83;11.55;;;6.20;78.60;;;;;;5094086;28;20046;-21
2022/01/03 06:53:06;;;;;;;24.50;13.70;;;6.20;78.60;;;;;;5092453;28;20052;-21
2022/01/03 06:55:31;;;;;;;17.55;9.27;;;6.20;78.60;;;;;;5093895;28;20096;-21
2022/01/03 06:57:57;;;;;;;28.50;16.48;;;6.20;78.50;;;;;;5093680;28;20038;-20
2022/01/03 07:00:23;;;;;;;24.65;13.85;;;6.20;78.50;;;;;;5093481;28;20031;-21
2022/01/03 07:02:50;;;;;;;24.80;14.07;;;6.30;78.50;;;;;;5093913;28;20487;-21
2022/01/03 07:05:16;;;;;;;24.83;13.93;;;6.30;78.40;;;;;;5093773;28;20080;-21
2022/01/03 07:07:42;;;;;;;32.30;18.67;;;6.30;78.50;;;;;;5093530;28;20028;-21
2022/01/03 07:10:11;;;;;;;27.67;13.70;;;6.30;78.50;;;;;;5093409;28;20483;-22
2022/01/03 07:12:39;;;;;;;18.30;10.98;;;6.30;78.40;;;;;;5094337;28;20043;-21
2022/01/03 07:20:36;;;;;;;21.08;10.23;;;6.40;78.30;;;;;;5093512;28;20039;-21
2022/01/03 07:23:02;;;;;;;22.92;13.80;;;6.40;78.20;;;;;;5093869;28;20368;-20
2022/01/03 07:25:29;;;;;;;23.55;13.55;;;6.40;78.20;;;;;;5093299;28;20031;-21
2022/01/03 07:27:55;;;;;;;38.97;21.58;;;6.40;78.10;;;;;;5093276;28;20028;-21
2022/01/03 07:30:21;;;;;;;27.38;15.77;;;6.40;78.10;;;;;;5092984;28;20036;-21
2022/01/03 07:32:47;;;;;;;39.10;21.48;;;6.40;78.20;;;;;;5093188;28;20111;-21
2022/01/03 07:35:16;;;;;;;32.75;18.30;;;6.40;78.20;;;;;;5093141;28;20040;-21
2022/01/03 07:37:42;;;;;;;33.60;18.77;;;6.40;78.20;;;;;;5093527;28;20089;-21
2022/01/03 07:40:09;;;;;;;28.80;16.40;;;6.40;78.20;;;;;;5093518;28;20024;-21
2022/01/03 07:42:35;;;;;;;20.50;11.68;;;6.40;78.20;;;;;;5093196;28;20024;-21
2022/01/03 07:45:01;;;;;;;31.55;17.30;;;6.50;78.20;;;;;;5093705;28;20492;-21
2022/01/03 07:47:26;;;;;;;29.25;15.05;;;6.50;78.20;;;;;;5093937;28;20168;-21
2022/01/03 07:49:52;;;;;;;17.60;9.55;;;6.60;78.10;;;;;;5093080;28;20035;-21
2022/01/03 07:52:18;;;;;;;23.67;13.48;;;6.60;78.10;;;;;;5092867;28;20024;-20
2022/01/03 07:54:45;;;;;;;32.22;18.10;;;6.60;78.00;;;;;;5092870;28;20117;-21
2022/01/03 07:57:11;;;;;;;30.65;15.27;;;6.60;77.90;;;;;;5093241;28;20024;-21
2022/01/03 07:59:38;;;;;;;34.42;19.85;;;6.70;77.90;;;;;;5093240;28;20055;-21
2022/01/03 08:02:04;;;;;;;33.03;18.73;;;6.70;77.80;;;;;;5091737;28;20118;-21
2022/01/03 08:04:30;;;;;;;36.38;20.20;;;6.70;77.80;;;;;;5093072;28;20064;-21
2022/01/03 08:06:56;;;;;;;33.75;19.83;;;6.70;77.80;;;;;;5094047;28;20074;-21
2022/01/03 08:09:22;;;;;;;31.50;18.38;;;6.70;77.90;;;;;;5093114;28;20024;-21
2022/01/03 08:11:48;;;;;;;32.38;17.58;;;6.70;77.90;;;;;;5092836;28;20024;-21
2022/01/03 08:14:14;;;;;;;23.67;14.48;;;6.70;77.90;;;;;;5092823;28;20046;-22
2022/01/03 08:16:40;;;;;;;34.03;19.27;;;6.80;77.90;;;;;;5093852;28;20035;-21
2022/01/03 08:19:06;;;;;;;26.05;13.60;;;6.90;77.90;;;;;;5097034;28;20463;-21
2022/01/03 08:21:32;;;;;;;30.48;16.58;;;6.90;77.80;;;;;;5096645;28;20536;-22
2022/01/03 08:23:58;;;;;;;41.58;23.35;;;6.90;77.80;;;;;;5096917;28;20028;-21
2022/01/03 08:26:24;;;;;;;28.88;16.38;;;7.00;77.80;;;;;;5096632;28;20032;-21
2022/01/03 08:28:51;;;;;;;21.35;11.95;;;7.00;77.70;;;;;;5096542;28;20062;-21
2022/01/03 08:31:17;;;;;;;17.85;9.88;;;7.10;77.60;;;;;;5096441;28;20089;-21
2022/01/03 08:33:43;;;;;;;19.48;10.88;;;7.10;77.50;;;;;;5096399;28;20024;-21
2022/01/03 08:36:09;;;;;;;35.15;19.90;;;7.20;77.40;;;;;;5097135;28;20111;-22
2022/01/03 08:38:35;;;;;;;35.00;19.67;;;7.20;77.30;;;;;;5096436;28;20111;-21
2022/01/03 08:41:01;;;;;;;25.70;13.70;;;7.20;77.20;;;;;;5096569;28;20028;-21
2022/01/03 08:43:27;;;;;;;28.25;15.90;;;7.30;77.20;;;;;;5097036;28;20410;-21
2022/01/03 08:45:53;;;;;;;27.00;15.15;;;7.30;77.20;;;;;;5096849;28;20032;-21
2022/01/03 08:48:19;;;;;;;29.60;17.63;;;7.30;77.10;;;;;;5095953;28;20023;-22
2022/01/03 08:50:45;;;;;;;25.77;13.93;;;7.30;77.00;;;;;;5096442;28;20042;-21
2022/01/03 08:53:11;;;;;;;34.30;18.70;;;7.30;77.00;;;;;;5095850;28;20493;-22
2022/01/03 08:55:38;;;;;;;31.20;18.63;;;7.40;76.90;;;;;;5095849;28;20111;-21
2022/01/03 08:58:03;;;;;;;32.83;20.23;;;7.40;77.00;;;;;;5096603;28;20471;-21
2022/01/03 09:00:29;;;;;;;29.52;17.17;;;7.40;77.00;;;;;;5095824;28;20073;-21
2022/01/03 09:02:55;;;;;;;28.55;16.02;;;7.40;76.90;;;;;;5096359;28;20020;-21
2022/01/03 09:05:21;;;;;;;23.83;13.95;;;7.40;77.00;;;;;;5095844;28;20028;-21
2022/01/03 09:07:47;;;;;;;29.35;15.88;;;7.40;77.00;;;;;;5095976;28;20024;-21
2022/01/03 09:10:13;;;;;;;39.00;21.70;;;7.40;77.10;;;;;;5095444;28;20051;-22
2022/01/03 09:12:40;;;;;;;36.55;21.40;;;7.40;77.00;;;;;;5095771;28;20078;-21
2022/01/03 09:15:06;;;;;;;27.10;15.45;;;7.40;77.00;;;;;;5095963;28;20083;-21
2022/01/03 09:17:32;;;;;;;38.88;22.58;;;7.50;77.10;;;;;;5095495;28;20508;-21
2022/01/03 09:19:58;;;;;;;32.53;19.13;;;7.50;77.10;;;;;;5095585;28;20027;-21
2022/01/03 09:22:31;;;;;;;26.38;16.35;;;7.60;76.90;;;;;;5095669;28;20039;-21
2022/01/03 09:30:11;;;;;;;;;;;7.80;76.80;;;;;;5095618;28;20431;-22
2022/01/03 09:32:37;;;;;;;34.17;19.75;;;7.80;76.60;;;;;;5093979;28;19957;-21
2022/01/03 09:35:04;;;;;;;28.58;17.10;;;7.90;76.50;;;;;;5095487;28;20518;-22
2022/01/03 09:37:36;;;;;;;26.63;15.65;;;7.80;76.50;;;;;;5095310;28;20054;-22
2022/01/03 09:40:04;;;;;;;33.35;19.45;;;7.90;76.50;;;;;;5095084;28;20495;-22
2022/01/03 09:42:32;;;;;;;35.97;20.52;;;7.90;76.40;;;;;;5095267;28;20054;-21
2022/01/03 09:45:02;;;;;;;29.15;17.00;;;7.90;76.30;;;;;;5095356;28;20028;-22
2022/01/03 09:47:30;;;;;;;40.45;23.40;;;7.90;76.30;;;;;;5095083;28;20479;-22
2022/01/03 09:49:59;;;;;;;36.83;22.23;;;8.00;76.40;;;;;;5095248;28;20051;-22
2022/01/03 09:52:26;;;;;;;27.67;16.40;;;8.00;76.40;;;;;;5094660;28;20488;-22
2022/01/03 09:54:55;;;;;;;23.23;13.30;;;8.00;76.30;;;;;;5094716;28;20500;-22
2022/01/03 09:57:22;;;;;;;36.22;21.15;;;8.10;76.30;;;;;;5094773;28;20483;-22
2022/01/03 09:59:49;;;;;;;39.15;23.17;;;8.10;76.30;;;;;;5094849;28;20100;-22
2022/01/03 10:02:17;;;;;;;35.20;20.10;;;8.10;76.10;;;;;;5094818;28;20030;-22
2022/01/03 10:04:44;;;;;;;31.77;18.70;;;8.20;76.10;;;;;;5094659;28;20028;-22
2022/01/03 10:07:11;;;;;;;26.50;15.27;;;8.20;76.10;;;;;;5094890;28;20029;-21
2022/01/03 10:09:39;;;;;;;33.88;20.00;;;8.20;76.20;;;;;;5094893;28;20028;-21
2022/01/03 10:12:08;;;;;;;28.33;17.45;;;8.20;76.10;;;;;;5094744;28;20111;-22
2022/01/03 10:14:34;;;;;;;28.83;16.38;;;8.30;76.10;;;;;;5094263;28;20388;-22
2022/01/03 10:17:00;;;;;;;23.90;13.57;;;8.30;76.20;;;;;;5094383;28;20032;-22
2022/01/03 10:19:26;;;;;;;30.77;17.08;;;8.30;76.10;;;;;;5094465;28;20059;-21
2022/01/03 10:21:52;;;;;;;32.08;17.90;;;8.40;75.90;;;;;;5094344;28;20046;-21
2022/01/03 10:24:29;;;;;;;38.70;20.58;;;8.40;75.90;;;;;;5094372;28;20052;-21
2022/01/03 10:26:56;;;;;;;37.28;23.60;;;8.50;76.00;;;;;;5094528;28;20468;-21
2022/01/03 10:29:27;;;;;;;28.15;16.48;;;8.50;75.80;;;;;;5094548;28;20071;-21
2022/01/03 10:31:55;;;;;;;39.33;23.85;;;8.60;75.70;;;;;;5094530;28;20031;-21
2022/01/03 10:34:26;;;;;;;36.30;22.08;;;8.60;75.70;;;;;;5094053;28;20032;-22
2022/01/03 10:36:56;;;;;;;45.90;26.58;;;8.70;75.70;;;;;;5094298;28;20504;-21
2022/01/03 10:39:28;;;;;;;53.05;28.70;;;8.70;75.40;;;;;;5093747;28;20028;-21
2022/01/03 10:42:12;;;;;;;47.63;28.85;;;8.80;75.50;;;;;;5094115;28;20485;-21
2022/01/03 10:44:41;;;;;;;43.28;25.25;;;8.80;75.50;;;;;;5094331;28;20032;-21
2022/01/03 10:47:16;;;;;;;38.65;23.42;;;8.90;75.60;;;;;;5094222;28;20024;-21
2022/01/03 10:49:45;;;;;;;38.22;23.02;;;8.90;75.50;;;;;;5093935;28;20499;-21
2022/01/03 10:52:22;;;;;;;38.20;21.83;;;8.90;75.40;;;;;;5094154;28;20020;-21
2022/01/03 10:55:30;;;;;;;42.42;24.95;;;9.00;75.50;;;;;;5093563;28;20051;-21
2022/01/03 10:58:04;;;;;;;41.60;24.50;;;9.10;75.40;;;;;;5093801;28;20048;-22
2022/01/03 11:00:36;;;;;;;34.63;22.27;;;9.20;75.10;;;;;;5093630;28;20464;-21
2022/01/03 11:03:14;;;;;;;38.53;24.15;;;9.30;75.20;;;;;;5094125;28;20435;-21
2022/01/03 11:05:45;;;;;;;39.28;24.15;;;9.40;75.20;;;;;;5093932;28;20035;-21
2022/01/03 11:10:57;;;;;;;39.60;23.88;;;9.50;75.00;;;;;;5093783;28;20395;-21
2022/01/03 11:13:23;;;;;;;55.15;32.40;;;9.60;74.80;;;;;;5093687;28;20028;-21
2022/01/03 11:15:51;;;;;;;46.85;28.63;;;9.70;74.60;;;;;;5093709;28;20106;-21
2022/01/03 11:18:19;;;;;;;47.42;28.35;;;9.80;74.60;;;;;;5093492;28;20079;-21
2022/01/03 11:20:49;;;;;;;38.67;21.40;;;9.80;74.30;;;;;;5093683;28;20031;-21
2022/01/03 11:23:21;;;;;;;39.88;24.40;;;9.90;74.40;;;;;;5093701;28;20020;-21
2022/01/03 11:25:47;;;;;;;44.42;25.77;;;10.00;74.40;;;;;;5093532;28;20067;-21
2022/01/03 11:28:13;;;;;;;40.00;24.20;;;10.10;74.40;;;;;;5093560;28;20061;-23
2022/01/03 11:30:40;;;;;;;37.13;22.90;;;10.20;74.30;;;;;;5093256;28;20043;-21
2022/01/03 11:33:09;;;;;;;41.17;25.15;;;10.30;74.10;;;;;;5093245;28;20020;-21
2022/01/03 11:35:37;;;;;;;46.60;27.70;;;10.40;73.80;;;;;;5093134;28;20050;-21
2022/01/03 11:38:04;;;;;;;45.70;25.98;;;10.40;73.60;;;;;;5093484;28;20032;-21
2022/01/03 11:40:30;;;;;;;36.72;22.70;;;10.50;73.50;;;;;;5092872;28;20106;-21
2022/01/03 11:42:58;;;;;;;40.22;23.20;;;10.60;73.20;;;;;;5091899;28;20035;-21
2022/01/03 11:45:25;;;;;;;42.58;24.52;;;10.60;73.20;;;;;;5093421;28;20039;-21
2022/01/03 11:47:52;;;;;;;38.05;22.88;;;10.70;73.10;;;;;;5093265;28;20058;-21
2022/01/03 11:50:18;;;;;;;35.53;19.58;;;10.70;73.10;;;;;;5092850;28;20391;-21
2022/01/03 11:52:45;;;;;;;32.47;18.65;;;10.70;72.90;;;;;;5095565;28;20031;-21
2022/01/03 11:55:14;;;;;;;32.38;18.33;;;10.80;73.00;;;;;;5097366;28;20392;-21
2022/01/03 11:58:13;;;;;;;22.83;13.70;;;10.80;73.00;;;;;;5097718;28;20036;-21
2022/01/03 12:03:49;;;;;;;40.55;25.45;;;10.90;72.50;;;;;;5097373;28;20105;-21
2022/01/03 12:06:29;;;;;;;26.38;15.75;;;10.90;72.80;;;;;;5097106;28;20093;-21
2022/01/03 12:09:02;;;;;;;27.38;16.05;;;10.90;72.60;;;;;;5097339;28;20066;-21
2022/01/03 12:11:30;;;;;;;38.80;22.30;;;11.00;72.70;;;;;;5097150;28;20099;-21
2022/01/03 12:14:06;;;;;;;40.88;22.67;;;11.00;72.90;;;;;;5096859;28;20036;-21
2022/01/03 12:16:44;;;;;;;42.15;25.88;;;11.10;72.70;;;;;;5096828;28;20032;-21
2022/01/03 12:19:46;;;;;;;28.55;17.10;;;11.10;72.10;;;;;;5096738;28;20036;-21
2022/01/03 12:22:17;;;;;;;21.48;12.50;;;11.10;72.30;;;;;;5096424;28;20099;-24
2022/01/03 12:25:03;;;;;;;31.83;19.15;;;11.20;72.40;;;;;;5096680;28;20532;-22
2022/01/03 12:27:32;;;;;;;22.05;12.70;;;11.20;72.40;;;;;;5096846;28;20078;-21
2022/01/03 12:30:01;;;;;;;20.60;12.13;;;11.30;72.50;;;;;;5096834;28;20028;-21
2022/01/03 12:32:27;;;;;;;16.98;10.02;;;11.40;72.60;;;;;;5096601;28;20074;-21
2022/01/03 12:35:17;;;;;;;27.30;17.02;;;11.40;72.50;;;;;;5096772;28;20399;-22
2022/01/03 12:37:55;;;;;;;26.17;15.25;;;11.40;72.00;;;;;;5096733;28;20119;-21
2022/01/03 12:40:31;;;;;;;27.60;15.57;;;11.50;72.20;;;;;;5096011;28;20387;-21
2022/01/03 12:43:01;;;;;;;31.65;18.48;;;11.50;72.10;;;;;;5096981;28;20020;-21
2022/01/03 12:45:29;;;;;;;31.17;18.30;;;11.60;71.80;;;;;;5096549;28;20024;-21
2022/01/03 12:48:10;;;;;;;26.77;15.25;;;11.60;71.70;;;;;;5094961;28;20034;-21
2022/01/03 12:50:39;;;;;;;50.03;30.10;;;11.60;71.20;;;;;;5095982;28;20028;-21
2022/01/03 12:53:07;;;;;;;33.70;20.65;;;11.50;71.50;;;;;;5095891;28;20040;-21
2022/01/03 12:55:42;;;;;;;36.03;22.23;;;11.50;71.10;;;;;;5095986;28;20058;-22
2022/01/03 12:58:17;;;;;;;24.80;14.20;;;11.50;71.60;;;;;;5096316;28;20040;-21
2022/01/03 13:00:45;;;;;;;25.67;16.38;;;11.50;71.90;;;;;;5096669;28;20077;-21
2022/01/03 13:03:30;;;;;;;27.02;15.43;;;11.50;71.90;;;;;;5095736;28;20122;-21